createdAt,value
2017-12-06T00:00:34.812Z,85.20
2017-12-06T00:01:41.520Z,85.20
2017-12-06T00:02:48.205Z,85.19
2017-12-06T00:03:55.397Z,85.25
2017-12-06T00:05:02.068Z,85.25
2017-12-06T00:06:08.842Z,85.28
2017-12-06T00:07:15.548Z,85.29
2017-12-06T00:08:22.303Z,85.30
2017-12-06T00:09:29.005Z,85.30
2017-12-06T00:10:35.689Z,85.28
2017-12-06T00:11:42.384Z,85.29
2017-12-06T00:12:49.162Z,85.33
2017-12-06T00:13:55.912Z,85.31
2017-12-06T00:15:03.757Z,85.32
2017-12-06T00:16:10.633Z,85.37
2017-12-06T00:17:17.320Z,85.35
2017-12-06T00:18:23.997Z,85.35
2017-12-06T00:19:30.733Z,85.35
2017-12-06T00:20:37.417Z,85.35
2017-12-06T00:21:44.237Z,85.37
2017-12-06T00:22:50.932Z,85.39
2017-12-06T00:23:57.677Z,85.38
2017-12-06T00:25:04.456Z,85.40
2017-12-06T00:26:11.118Z,85.44
2017-12-06T00:27:17.893Z,85.42
2017-12-06T00:28:25.060Z,85.43
2017-12-06T00:29:31.804Z,85.44
2017-12-06T00:30:38.573Z,85.44
2017-12-06T00:31:45.244Z,85.42
2017-12-06T00:32:52.018Z,85.43
2017-12-06T00:33:58.742Z,85.45
2017-12-06T00:35:05.489Z,85.45
2017-12-06T00:36:12.565Z,85.46
2017-12-06T00:37:19.233Z,85.47
2017-12-06T00:38:25.932Z,85.47
2017-12-06T00:39:32.616Z,85.50
2017-12-06T00:40:39.404Z,85.47
2017-12-06T00:41:46.060Z,85.49
2017-12-06T00:42:53.240Z,85.50
2017-12-06T00:43:59.909Z,85.49
2017-12-06T00:45:06.609Z,85.50
2017-12-06T00:46:13.299Z,85.51
2017-12-06T00:47:19.961Z,85.49
2017-12-06T00:48:27.132Z,85.52
2017-12-06T00:49:33.870Z,85.53
2017-12-06T00:50:40.560Z,85.56
2017-12-06T00:51:47.256Z,85.53
2017-12-06T00:52:53.972Z,85.51
2017-12-06T00:54:00.708Z,85.51
2017-12-06T00:55:07.380Z,85.51
2017-12-06T00:56:14.172Z,85.53
2017-12-06T00:57:20.835Z,85.50
2017-12-06T00:58:27.521Z,85.52
2017-12-06T00:59:34.212Z,85.55
2017-12-06T01:00:41.460Z,85.54
2017-12-06T01:01:48.141Z,85.56
2017-12-06T01:02:54.912Z,85.56
2017-12-06T01:04:01.581Z,85.53
2017-12-06T01:05:08.798Z,85.52
2017-12-06T01:06:15.528Z,85.54
2017-12-06T01:07:22.244Z,85.56
2017-12-06T01:08:28.904Z,85.57
2017-12-06T01:09:35.596Z,85.55
2017-12-06T01:10:42.364Z,85.55
2017-12-06T01:11:49.076Z,85.53
2017-12-06T01:12:55.772Z,85.55
2017-12-06T01:14:02.592Z,85.56
2017-12-06T01:15:09.752Z,85.56
2017-12-06T01:16:16.520Z,85.57
2017-12-06T01:17:23.209Z,85.56
2017-12-06T01:18:29.880Z,85.58
2017-12-06T01:19:36.588Z,85.59
2017-12-06T01:20:43.266Z,85.59
2017-12-06T01:21:50.005Z,85.59
2017-12-06T01:22:56.676Z,85.57
2017-12-06T01:24:03.440Z,85.58
2017-12-06T01:25:10.599Z,85.60
2017-12-06T01:26:17.752Z,85.61
2017-12-06T01:27:24.465Z,85.60
2017-12-06T01:28:31.184Z,85.58
2017-12-06T01:29:37.872Z,85.59
2017-12-06T01:30:44.575Z,85.60
2017-12-06T01:31:51.265Z,85.62
2017-12-06T01:32:58.072Z,85.60
2017-12-06T01:34:04.744Z,85.59
2017-12-06T01:35:11.436Z,85.59
2017-12-06T01:36:18.196Z,85.63
2017-12-06T01:37:24.901Z,85.62
2017-12-06T01:38:32.080Z,85.62
2017-12-06T01:39:38.873Z,85.62
2017-12-06T01:40:45.541Z,85.61
2017-12-06T01:41:52.681Z,85.63
2017-12-06T01:42:59.837Z,85.59
2017-12-06T01:44:06.689Z,85.60
2017-12-06T01:45:13.360Z,85.63
2017-12-06T01:46:20.050Z,85.64
2017-12-06T01:47:26.698Z,85.63
2017-12-06T01:48:33.495Z,85.63
2017-12-06T01:49:40.184Z,85.61
2017-12-06T01:50:46.864Z,85.64
2017-12-06T01:51:53.655Z,85.64
2017-12-06T01:53:00.336Z,85.64
2017-12-06T01:54:07.037Z,85.64
2017-12-06T01:55:13.811Z,85.64
2017-12-06T01:56:20.533Z,85.64
2017-12-06T01:57:27.244Z,85.63
2017-12-06T01:58:33.976Z,85.65
2017-12-06T01:59:40.709Z,85.68
2017-12-06T02:00:47.608Z,85.64
2017-12-06T02:01:54.271Z,85.64
2017-12-06T02:03:00.964Z,85.63
2017-12-06T02:04:07.680Z,85.64
2017-12-06T02:05:14.360Z,85.66
2017-12-06T02:06:21.098Z,85.65
2017-12-06T02:07:27.826Z,85.65
2017-12-06T02:08:34.985Z,85.65
2017-12-06T02:09:41.664Z,85.66
2017-12-06T02:10:48.345Z,85.65
2017-12-06T02:11:55.237Z,85.64
2017-12-06T02:13:02.024Z,85.65
2017-12-06T02:14:08.716Z,85.64
2017-12-06T02:15:15.388Z,85.64
2017-12-06T02:16:22.060Z,85.62
2017-12-06T02:17:28.779Z,85.61
2017-12-06T02:18:35.460Z,85.62
2017-12-06T02:19:42.168Z,85.59
2017-12-06T02:20:48.870Z,85.60
2017-12-06T02:21:55.716Z,85.60
2017-12-06T02:23:02.398Z,85.62
2017-12-06T02:24:09.131Z,85.63
2017-12-06T02:25:15.865Z,85.63
2017-12-06T02:26:22.684Z,85.62
2017-12-06T02:27:29.428Z,85.62
2017-12-06T02:28:36.208Z,85.60
2017-12-06T02:29:42.925Z,85.62
2017-12-06T02:30:49.748Z,85.63
2017-12-06T02:31:56.440Z,85.63
2017-12-06T02:33:03.113Z,85.59
2017-12-06T02:34:09.964Z,85.62
2017-12-06T02:35:16.672Z,85.62
2017-12-06T02:36:23.429Z,85.61
2017-12-06T02:37:30.107Z,85.62
2017-12-06T02:38:37.273Z,85.63
2017-12-06T02:39:44.524Z,85.61
2017-12-06T02:40:51.362Z,85.62
2017-12-06T02:42:01.792Z,85.60
2017-12-06T02:43:08.906Z,85.62
2017-12-06T02:44:18.408Z,85.61
2017-12-06T02:45:25.288Z,85.62
2017-12-06T02:46:31.961Z,85.62
2017-12-06T02:47:38.681Z,85.64
2017-12-06T02:48:45.433Z,85.63
2017-12-06T02:49:52.674Z,85.65
2017-12-06T02:50:59.373Z,85.63
2017-12-06T02:52:06.068Z,85.63
2017-12-06T02:53:12.779Z,85.63
2017-12-06T02:54:19.472Z,85.63
2017-12-06T02:55:26.183Z,85.65
2017-12-06T02:56:32.922Z,85.59
2017-12-06T02:57:39.621Z,85.62
2017-12-06T02:58:46.404Z,85.58
2017-12-06T02:59:53.153Z,85.58
2017-12-06T03:01:00.016Z,85.59
2017-12-06T03:02:06.762Z,85.58
2017-12-06T03:03:13.463Z,85.58
2017-12-06T03:04:20.222Z,85.59
2017-12-06T03:05:26.920Z,85.57
2017-12-06T03:06:33.761Z,85.56
2017-12-06T03:07:40.561Z,85.58
2017-12-06T03:08:47.300Z,85.58
2017-12-06T03:09:54.130Z,85.57
2017-12-06T03:11:00.873Z,85.56
2017-12-06T03:12:07.625Z,85.54
2017-12-06T03:13:14.325Z,85.55
2017-12-06T03:14:21.061Z,85.56
2017-12-06T03:15:27.984Z,85.57
2017-12-06T03:16:34.762Z,85.55
2017-12-06T03:17:41.472Z,85.57
2017-12-06T03:18:48.156Z,85.54
2017-12-06T03:19:54.932Z,85.55
2017-12-06T03:21:01.612Z,85.57
2017-12-06T03:22:08.320Z,85.57
2017-12-06T03:23:15.051Z,85.56
2017-12-06T03:24:21.756Z,85.55
2017-12-06T03:25:28.456Z,85.56
2017-12-06T03:26:35.163Z,85.56
2017-12-06T03:27:41.932Z,85.56
2017-12-06T03:28:48.625Z,85.53
2017-12-06T03:29:55.328Z,85.53
2017-12-06T03:31:02.058Z,85.54
2017-12-06T03:32:08.779Z,85.57
2017-12-06T03:33:15.489Z,85.54
2017-12-06T03:34:22.251Z,85.54
2017-12-06T03:35:28.950Z,85.53
2017-12-06T03:36:35.657Z,85.52
2017-12-06T03:37:42.362Z,85.54
2017-12-06T03:38:49.131Z,85.51
2017-12-06T03:39:55.902Z,85.53
2017-12-06T03:41:02.596Z,85.55
2017-12-06T03:42:09.320Z,85.57
2017-12-06T03:43:16.049Z,85.59
2017-12-06T03:44:22.751Z,85.58
2017-12-06T03:45:29.544Z,85.57
2017-12-06T03:46:36.244Z,85.55
2017-12-06T03:47:42.993Z,85.55
2017-12-06T03:48:49.692Z,85.56
2017-12-06T03:49:56.404Z,85.56
2017-12-06T03:51:03.276Z,85.56
2017-12-06T03:52:09.991Z,85.54
2017-12-06T03:53:16.725Z,85.51
2017-12-06T03:54:23.423Z,85.52
2017-12-06T03:55:30.216Z,85.53
2017-12-06T03:56:36.904Z,85.52
2017-12-06T03:57:43.604Z,85.53
2017-12-06T03:58:50.341Z,85.53
2017-12-06T03:59:57.097Z,85.50
2017-12-06T04:01:03.885Z,85.51
2017-12-06T04:02:10.599Z,85.49
2017-12-06T04:03:17.308Z,85.49
2017-12-06T04:04:24.052Z,85.46
2017-12-06T04:05:30.751Z,85.46
2017-12-06T04:06:37.537Z,85.49
2017-12-06T04:07:44.250Z,85.44
2017-12-06T04:08:50.965Z,85.50
2017-12-06T04:09:57.729Z,85.46
2017-12-06T04:11:04.564Z,85.49
2017-12-06T04:12:11.242Z,85.47
2017-12-06T04:13:17.948Z,85.50
2017-12-06T04:14:24.652Z,85.49
2017-12-06T04:15:31.374Z,85.51
2017-12-06T04:16:38.085Z,85.47
2017-12-06T04:17:44.911Z,85.50
2017-12-06T04:18:51.608Z,85.49
2017-12-06T04:19:58.333Z,85.51
2017-12-06T04:21:05.072Z,85.46
2017-12-06T04:22:11.767Z,85.45
2017-12-06T04:23:18.483Z,85.44
2017-12-06T04:24:25.289Z,85.46
2017-12-06T04:25:32.019Z,85.46
2017-12-06T04:26:38.767Z,85.46
2017-12-06T04:27:45.485Z,85.46
2017-12-06T04:28:52.197Z,85.46
2017-12-06T04:29:58.985Z,85.46
2017-12-06T04:31:05.693Z,85.43
2017-12-06T04:32:12.438Z,85.42
2017-12-06T04:33:19.156Z,85.41
2017-12-06T04:34:25.864Z,85.39
2017-12-06T04:35:32.578Z,85.41
2017-12-06T04:36:39.388Z,85.41
2017-12-06T04:37:46.135Z,85.41
2017-12-06T04:38:52.932Z,85.40
2017-12-06T04:39:59.747Z,85.42
2017-12-06T04:41:06.721Z,85.40
2017-12-06T04:42:13.537Z,85.38
2017-12-06T04:43:20.309Z,85.42
2017-12-06T04:44:27.052Z,85.42
2017-12-06T04:45:33.794Z,85.40
2017-12-06T04:46:40.597Z,85.39
2017-12-06T04:47:47.332Z,85.39
2017-12-06T04:48:54.035Z,85.42
2017-12-06T04:50:00.769Z,85.38
2017-12-06T04:51:07.879Z,85.41
2017-12-06T04:52:14.561Z,85.41
2017-12-06T04:53:21.268Z,85.39
2017-12-06T04:54:28.060Z,85.41
2017-12-06T04:55:34.788Z,85.42
2017-12-06T04:56:41.533Z,85.42
2017-12-06T04:57:48.241Z,85.44
2017-12-06T04:58:54.949Z,85.44
2017-12-06T05:00:01.738Z,85.44
2017-12-06T05:01:08.487Z,85.44
2017-12-06T05:02:15.204Z,85.44
2017-12-06T05:03:21.912Z,85.43
2017-12-06T05:04:28.641Z,85.44
2017-12-06T05:05:35.412Z,85.44
2017-12-06T05:06:42.123Z,85.39
2017-12-06T05:07:48.844Z,85.38
2017-12-06T05:08:55.556Z,85.41
2017-12-06T05:10:02.273Z,85.34
2017-12-06T05:11:09.088Z,85.37
2017-12-06T05:12:15.793Z,85.36
2017-12-06T05:13:22.521Z,85.38
2017-12-06T05:14:29.257Z,85.43
2017-12-06T05:15:35.951Z,85.44
2017-12-06T05:16:42.756Z,85.41
2017-12-06T05:17:49.469Z,85.45
2017-12-06T05:18:56.276Z,85.43
2017-12-06T05:20:02.953Z,85.44
2017-12-06T05:21:09.684Z,85.44
2017-12-06T05:22:16.432Z,85.38
2017-12-06T05:23:23.104Z,85.41
2017-12-06T05:24:29.923Z,85.39
2017-12-06T05:25:36.620Z,85.40
2017-12-06T05:26:43.308Z,85.39
2017-12-06T05:27:50.121Z,85.36
2017-12-06T05:28:56.817Z,85.41
2017-12-06T05:30:03.541Z,85.40
2017-12-06T05:31:10.247Z,85.39
2017-12-06T05:32:17.082Z,85.38
2017-12-06T05:33:23.840Z,85.38
2017-12-06T05:34:30.566Z,85.42
2017-12-06T05:35:37.299Z,85.41
2017-12-06T05:36:44.017Z,85.38
2017-12-06T05:37:50.752Z,85.38
2017-12-06T05:38:57.524Z,85.42
2017-12-06T05:40:04.217Z,85.42
2017-12-06T05:41:10.944Z,85.41
2017-12-06T05:42:17.672Z,85.41
2017-12-06T05:43:24.404Z,85.40
2017-12-06T05:44:31.227Z,85.42
2017-12-06T05:45:37.929Z,85.40
2017-12-06T05:46:44.657Z,85.41
2017-12-06T05:47:51.375Z,85.42
2017-12-06T05:48:58.097Z,85.40
2017-12-06T05:50:04.784Z,85.37
2017-12-06T05:51:11.571Z,85.36
2017-12-06T05:52:18.260Z,85.35
2017-12-06T05:53:24.993Z,85.35
2017-12-06T05:54:31.715Z,85.29
2017-12-06T05:55:38.405Z,85.30
2017-12-06T05:56:45.114Z,85.31
2017-12-06T05:57:51.889Z,85.31
2017-12-06T05:58:58.592Z,85.32
2017-12-06T06:00:05.320Z,85.30
2017-12-06T06:01:12.016Z,85.26
2017-12-06T06:02:18.739Z,85.26
2017-12-06T06:03:25.451Z,85.25
2017-12-06T06:04:32.241Z,85.26
2017-12-06T06:05:39.030Z,85.25
2017-12-06T06:06:45.860Z,85.25
2017-12-06T06:07:52.605Z,85.27
2017-12-06T06:08:59.435Z,85.26
2017-12-06T06:10:06.156Z,85.25
2017-12-06T06:11:12.899Z,85.26
2017-12-06T06:12:19.656Z,85.24
2017-12-06T06:13:26.364Z,85.24
2017-12-06T06:14:33.146Z,85.26
2017-12-06T06:15:39.864Z,85.25
2017-12-06T06:16:46.680Z,85.27
2017-12-06T06:17:53.419Z,85.27
2017-12-06T06:19:00.124Z,85.27
2017-12-06T06:20:06.884Z,85.26
2017-12-06T06:21:13.601Z,85.21
2017-12-06T06:22:20.348Z,85.20
2017-12-06T06:23:27.057Z,85.21
2017-12-06T06:24:33.825Z,85.22
2017-12-06T06:25:40.588Z,85.23
2017-12-06T06:26:47.400Z,85.20
2017-12-06T06:27:54.100Z,85.24
2017-12-06T06:29:00.917Z,85.23
2017-12-06T06:30:07.665Z,85.23
2017-12-06T06:31:14.462Z,85.21
2017-12-06T06:32:21.173Z,85.21
2017-12-06T06:33:27.898Z,85.19
2017-12-06T06:34:34.624Z,85.19
2017-12-06T06:35:41.359Z,85.18
2017-12-06T06:36:48.168Z,85.21
2017-12-06T06:37:54.909Z,85.16
2017-12-06T06:39:01.632Z,85.19
2017-12-06T06:40:08.731Z,85.17
2017-12-06T06:41:15.483Z,85.17
2017-12-06T06:42:22.295Z,85.19
2017-12-06T06:43:29.010Z,85.19
2017-12-06T06:44:35.748Z,85.15
2017-12-06T06:45:42.492Z,85.17
2017-12-06T06:46:49.221Z,85.14
2017-12-06T06:47:55.999Z,85.16
2017-12-06T06:49:02.717Z,85.16
2017-12-06T06:50:09.567Z,85.15
2017-12-06T06:51:16.313Z,85.15
2017-12-06T06:52:23.043Z,85.14
2017-12-06T06:53:29.774Z,85.13
2017-12-06T06:54:36.512Z,85.14
2017-12-06T06:55:43.248Z,85.14
2017-12-06T06:56:50.000Z,85.11
2017-12-06T06:57:56.768Z,85.11
2017-12-06T06:59:03.469Z,85.13
2017-12-06T07:00:10.200Z,85.13
2017-12-06T07:01:16.953Z,85.13
2017-12-06T07:02:23.748Z,85.15
2017-12-06T07:03:30.475Z,85.12
2017-12-06T07:04:37.208Z,85.10
2017-12-06T07:05:43.928Z,85.12
2017-12-06T07:06:50.667Z,85.10
2017-12-06T07:07:57.375Z,85.12
2017-12-06T07:09:04.173Z,85.13
2017-12-06T07:10:10.904Z,85.12
2017-12-06T07:11:17.636Z,85.13
2017-12-06T07:12:24.444Z,85.13
2017-12-06T07:13:31.395Z,85.11
2017-12-06T07:14:38.075Z,85.12
2017-12-06T07:15:44.780Z,85.12
2017-12-06T07:16:51.511Z,85.13
2017-12-06T07:17:58.332Z,85.13
2017-12-06T07:19:05.052Z,85.15
2017-12-06T07:20:11.777Z,85.15
2017-12-06T07:21:18.496Z,85.16
2017-12-06T07:22:25.228Z,85.14
2017-12-06T07:23:32.028Z,85.12
2017-12-06T07:24:38.716Z,85.12
2017-12-06T07:25:45.408Z,85.13
2017-12-06T07:26:52.144Z,85.15
2017-12-06T07:27:58.861Z,85.15
2017-12-06T07:29:05.676Z,85.14
2017-12-06T07:30:12.401Z,85.16
2017-12-06T07:31:19.108Z,85.18
2017-12-06T07:32:25.900Z,85.16
2017-12-06T07:33:32.719Z,85.16
2017-12-06T07:34:39.425Z,85.20
2017-12-06T07:35:46.136Z,85.16
2017-12-06T07:36:52.893Z,85.20
2017-12-06T07:37:59.797Z,85.15
2017-12-06T07:39:06.544Z,85.16
2017-12-06T07:40:13.341Z,85.16
2017-12-06T07:41:20.056Z,85.16
2017-12-06T07:42:26.838Z,85.16
2017-12-06T07:43:33.572Z,85.15
2017-12-06T07:44:40.302Z,85.14
2017-12-06T07:45:47.065Z,85.13
2017-12-06T07:46:53.763Z,85.15
2017-12-06T07:48:00.561Z,85.17
2017-12-06T07:49:07.290Z,85.18
2017-12-06T07:50:14.072Z,85.15
2017-12-06T07:51:20.781Z,85.15
2017-12-06T07:52:27.468Z,85.18
2017-12-06T07:53:34.236Z,85.20
2017-12-06T07:54:40.916Z,85.20
2017-12-06T07:55:47.631Z,85.20
2017-12-06T07:56:54.320Z,85.21
2017-12-06T07:58:01.094Z,85.20
2017-12-06T07:59:08.250Z,85.21
2017-12-06T08:00:15.061Z,85.22
2017-12-06T08:01:21.740Z,85.20
2017-12-06T08:02:28.433Z,85.23
2017-12-06T08:03:35.153Z,85.20
2017-12-06T08:04:41.883Z,85.20
2017-12-06T08:05:48.581Z,85.20
2017-12-06T08:06:55.368Z,85.20
2017-12-06T08:08:02.084Z,85.22
2017-12-06T08:09:08.797Z,85.22
2017-12-06T08:10:15.516Z,85.23
2017-12-06T08:11:22.233Z,85.26
2017-12-06T08:12:28.980Z,85.26
2017-12-06T08:13:36.172Z,85.26
2017-12-06T08:14:42.872Z,85.24
2017-12-06T08:15:49.572Z,85.26
2017-12-06T08:16:56.368Z,85.26
2017-12-06T08:18:03.189Z,85.25
2017-12-06T08:19:09.872Z,85.26
2017-12-06T08:20:16.592Z,85.26
2017-12-06T08:21:23.300Z,85.26
2017-12-06T08:22:30.022Z,85.28
2017-12-06T08:23:36.737Z,85.31
2017-12-06T08:24:43.616Z,85.33
2017-12-06T08:25:50.375Z,85.30
2017-12-06T08:26:57.072Z,85.30
2017-12-06T08:28:03.776Z,85.33
2017-12-06T08:29:10.629Z,85.35
2017-12-06T08:30:17.361Z,85.35
2017-12-06T08:31:24.144Z,85.38
2017-12-06T08:32:30.869Z,85.38
2017-12-06T08:33:37.728Z,85.36
2017-12-06T08:34:44.483Z,85.38
2017-12-06T08:35:51.213Z,85.41
2017-12-06T08:36:57.944Z,85.41
2017-12-06T08:38:04.806Z,85.40
2017-12-06T08:39:11.608Z,85.41
2017-12-06T08:40:18.400Z,85.41
2017-12-06T08:41:25.225Z,85.45
2017-12-06T08:42:31.953Z,85.43
2017-12-06T08:43:38.723Z,85.44
2017-12-06T08:44:45.480Z,85.46
2017-12-06T08:45:52.326Z,85.43
2017-12-06T08:46:59.076Z,85.46
2017-12-06T08:48:05.917Z,85.47
2017-12-06T08:49:12.733Z,85.46
2017-12-06T08:50:19.481Z,85.50
2017-12-06T08:51:26.276Z,85.50
2017-12-06T08:52:33.016Z,85.53
2017-12-06T08:53:39.793Z,85.54
2017-12-06T08:54:46.526Z,85.53
2017-12-06T08:55:53.300Z,85.53
2017-12-06T08:57:00.021Z,85.54
2017-12-06T08:58:07.161Z,85.54
2017-12-06T08:59:13.689Z,85.57
2017-12-06T09:00:20.460Z,85.60
2017-12-06T09:01:27.268Z,85.60
2017-12-06T09:02:34.060Z,85.60
2017-12-06T09:03:40.829Z,85.62
2017-12-06T09:04:47.647Z,85.61
2017-12-06T09:05:54.515Z,85.64
2017-12-06T09:07:01.289Z,85.65
2017-12-06T09:08:08.032Z,85.70
2017-12-06T09:09:14.762Z,85.72
2017-12-06T09:10:21.498Z,85.71
2017-12-06T09:11:28.469Z,85.74
2017-12-06T09:12:35.229Z,85.79
2017-12-06T09:13:42.028Z,85.77
2017-12-06T09:14:48.797Z,85.79
2017-12-06T09:15:55.545Z,85.90
2017-12-06T09:17:02.301Z,86.03
2017-12-06T09:18:09.356Z,86.11
2017-12-06T09:19:16.157Z,86.18
2017-12-06T09:20:22.872Z,86.19
2017-12-06T09:21:29.735Z,86.15
2017-12-06T09:22:36.524Z,86.14
2017-12-06T09:23:43.441Z,86.11
2017-12-06T09:24:50.180Z,86.06
2017-12-06T09:25:56.978Z,86.00
2017-12-06T09:27:03.709Z,85.98
2017-12-06T09:28:10.509Z,85.96
2017-12-06T09:29:17.424Z,85.99
2017-12-06T09:30:24.261Z,86.01
2017-12-06T09:31:31.021Z,86.03
2017-12-06T09:32:37.794Z,86.00
2017-12-06T09:33:44.520Z,86.01
2017-12-06T09:34:51.293Z,86.01
2017-12-06T09:35:58.036Z,86.00
2017-12-06T09:37:04.777Z,85.98
2017-12-06T09:38:11.532Z,85.98
2017-12-06T09:39:18.349Z,85.98
2017-12-06T09:40:25.053Z,86.04
2017-12-06T09:41:31.916Z,86.00
2017-12-06T09:42:38.748Z,86.00
2017-12-06T09:43:45.469Z,85.97
2017-12-06T09:44:52.264Z,85.95
2017-12-06T09:45:59.244Z,85.99
2017-12-06T09:47:11.232Z,86.01
2017-12-06T09:48:12.965Z,86.03
2017-12-06T09:49:19.728Z,86.06
2017-12-06T09:50:26.447Z,86.06
2017-12-06T09:51:33.173Z,86.05
2017-12-06T09:52:39.948Z,86.08
2017-12-06T09:53:46.684Z,86.09
2017-12-06T09:54:53.438Z,86.12
2017-12-06T09:56:00.171Z,86.11
2017-12-06T09:57:06.980Z,86.12
2017-12-06T09:58:13.694Z,86.12
2017-12-06T09:59:20.429Z,86.14
2017-12-06T10:00:27.275Z,86.12
2017-12-06T10:01:34.038Z,86.11
2017-12-06T10:02:40.761Z,86.06
2017-12-06T10:03:47.525Z,86.06
2017-12-06T10:04:54.248Z,86.01
2017-12-06T10:06:01.036Z,86.04
2017-12-06T10:07:07.777Z,86.02
2017-12-06T10:08:14.496Z,86.02
2017-12-06T10:09:21.248Z,86.06
2017-12-06T10:10:28.085Z,86.07
2017-12-06T10:11:34.797Z,86.07
2017-12-06T10:12:41.648Z,86.11
2017-12-06T10:13:48.710Z,86.14
2017-12-06T10:14:55.432Z,86.18
2017-12-06T10:16:02.137Z,86.20
2017-12-06T10:17:08.920Z,86.23
2017-12-06T10:18:15.640Z,86.26
2017-12-06T10:19:22.396Z,86.28
2017-12-06T10:20:29.125Z,86.27
2017-12-06T10:21:35.888Z,86.27
2017-12-06T10:22:42.625Z,86.26
2017-12-06T10:23:49.378Z,86.25
2017-12-06T10:24:56.242Z,86.25
2017-12-06T10:26:03.021Z,86.27
2017-12-06T10:27:09.760Z,86.27
2017-12-06T10:28:16.523Z,86.29
2017-12-06T10:29:23.282Z,86.29
2017-12-06T10:30:30.001Z,86.31
2017-12-06T10:31:36.741Z,86.29
2017-12-06T10:32:43.449Z,86.30
2017-12-06T10:33:50.151Z,86.29
2017-12-06T10:34:56.938Z,86.25
2017-12-06T10:36:03.683Z,86.21
2017-12-06T10:37:10.500Z,86.25
2017-12-06T10:38:17.308Z,86.27
2017-12-06T10:39:24.075Z,86.29
2017-12-06T10:40:30.704Z,86.26
2017-12-06T10:41:37.532Z,86.30
2017-12-06T10:42:44.344Z,86.28
2017-12-06T10:43:51.064Z,86.23
2017-12-06T10:44:58.093Z,86.24
2017-12-06T10:46:04.800Z,86.23
2017-12-06T10:47:11.689Z,86.21
2017-12-06T10:48:18.460Z,86.24
2017-12-06T10:49:25.164Z,86.20
2017-12-06T10:50:31.879Z,86.17
2017-12-06T10:51:38.596Z,86.13
2017-12-06T10:52:45.323Z,86.14
2017-12-06T10:53:52.083Z,86.18
2017-12-06T10:54:58.781Z,86.19
2017-12-06T10:56:05.512Z,86.17
2017-12-06T10:57:12.200Z,86.20
2017-12-06T10:58:18.907Z,86.21
2017-12-06T10:59:25.696Z,86.19
2017-12-06T11:00:32.415Z,86.20
2017-12-06T11:01:39.444Z,86.20
2017-12-06T11:02:46.185Z,86.18
2017-12-06T11:03:52.907Z,86.18
2017-12-06T11:04:59.637Z,86.15
2017-12-06T11:06:06.340Z,86.16
2017-12-06T11:07:13.095Z,86.20
2017-12-06T11:08:19.825Z,86.21
2017-12-06T11:09:26.587Z,86.11
2017-12-06T11:10:33.507Z,86.06
2017-12-06T11:11:40.282Z,86.05
2017-12-06T11:12:46.967Z,86.09
2017-12-06T11:13:53.716Z,86.02
2017-12-06T11:15:00.532Z,85.95
2017-12-06T11:16:07.249Z,85.94
2017-12-06T11:17:13.956Z,85.93
2017-12-06T11:18:20.692Z,85.95
2017-12-06T11:19:27.392Z,85.92
2017-12-06T11:20:34.077Z,85.90
2017-12-06T11:21:40.828Z,85.93
2017-12-06T11:22:47.549Z,85.92
2017-12-06T11:23:54.287Z,85.90
2017-12-06T11:25:01.165Z,85.86
2017-12-06T11:26:08.085Z,85.89
2017-12-06T11:27:14.819Z,85.93
2017-12-06T11:28:21.623Z,85.92
2017-12-06T11:29:28.324Z,85.94
2017-12-06T11:30:35.041Z,85.96
2017-12-06T11:31:41.773Z,85.95
2017-12-06T11:32:48.473Z,85.94
2017-12-06T11:33:55.168Z,85.92
2017-12-06T11:35:01.956Z,85.91
2017-12-06T11:36:08.669Z,85.87
2017-12-06T11:37:15.400Z,85.85
2017-12-06T11:38:22.104Z,85.84
2017-12-06T11:39:28.842Z,85.87
2017-12-06T11:40:35.616Z,85.86
2017-12-06T11:41:42.295Z,85.81
2017-12-06T11:42:48.989Z,85.77
2017-12-06T11:43:55.680Z,85.74
2017-12-06T11:45:02.417Z,85.70
2017-12-06T11:46:09.132Z,85.72
2017-12-06T11:47:15.899Z,85.73
2017-12-06T11:48:22.620Z,85.71
2017-12-06T11:49:29.344Z,85.70
2017-12-06T11:50:36.117Z,85.74
2017-12-06T11:51:42.901Z,85.72
2017-12-06T11:52:49.642Z,85.73
2017-12-06T11:53:56.634Z,85.65
2017-12-06T11:55:03.430Z,85.57
2017-12-06T11:56:10.268Z,85.57
2017-12-06T11:57:17.081Z,85.62
2017-12-06T11:58:23.807Z,85.62
2017-12-06T11:59:30.536Z,85.63
2017-12-06T12:00:37.272Z,85.64
2017-12-06T12:01:44.122Z,85.66
2017-12-06T12:02:50.872Z,85.65
2017-12-06T12:03:57.623Z,85.66
2017-12-06T12:05:04.465Z,85.66
2017-12-06T12:06:11.192Z,85.67
2017-12-06T12:07:17.900Z,85.67
2017-12-06T12:08:24.616Z,85.64
2017-12-06T12:09:31.615Z,85.72
2017-12-06T12:10:38.368Z,85.72
2017-12-06T12:11:45.106Z,85.75
2017-12-06T12:12:51.832Z,85.71
2017-12-06T12:13:58.584Z,85.67
2017-12-06T12:15:05.300Z,85.61
2017-12-06T12:16:12.076Z,85.58
2017-12-06T12:17:18.928Z,85.54
2017-12-06T12:18:25.632Z,85.48
2017-12-06T12:19:32.361Z,85.44
2017-12-06T12:20:39.068Z,85.38
2017-12-06T12:21:45.900Z,85.39
2017-12-06T12:22:52.628Z,85.41
2017-12-06T12:23:59.408Z,85.32
2017-12-06T12:25:06.112Z,85.26
2017-12-06T12:26:12.932Z,85.25
2017-12-06T12:27:19.639Z,85.27
2017-12-06T12:28:26.357Z,85.25
2017-12-06T12:29:33.115Z,85.21
2017-12-06T12:30:39.847Z,85.23
2017-12-06T12:31:46.662Z,85.28
2017-12-06T12:32:53.426Z,85.26
2017-12-06T12:34:00.144Z,85.21
2017-12-06T12:35:06.834Z,85.16
2017-12-06T12:36:13.566Z,85.16
2017-12-06T12:37:20.297Z,85.19
2017-12-06T12:38:27.098Z,85.18
2017-12-06T12:39:34.153Z,85.19
2017-12-06T12:40:40.973Z,85.11
2017-12-06T12:41:47.886Z,85.03
2017-12-06T12:42:54.697Z,85.06
2017-12-06T12:44:01.737Z,85.08
2017-12-06T12:45:08.572Z,84.99
2017-12-06T12:46:15.477Z,84.99
2017-12-06T12:47:22.275Z,84.98
2017-12-06T12:48:29.164Z,84.99
2017-12-06T12:49:35.989Z,84.97
2017-12-06T12:50:42.792Z,84.95
2017-12-06T12:51:49.623Z,84.97
2017-12-06T12:52:56.441Z,84.92
2017-12-06T12:54:03.296Z,84.86
2017-12-06T12:55:10.131Z,84.83
2017-12-06T12:56:17.049Z,84.78
2017-12-06T12:57:23.873Z,84.79
2017-12-06T12:58:30.780Z,84.84
2017-12-06T12:59:37.624Z,84.79
2017-12-06T13:00:44.547Z,84.75
2017-12-06T13:01:51.500Z,84.72
2017-12-06T13:02:58.301Z,84.72
2017-12-06T13:04:05.205Z,84.73
2017-12-06T13:05:12.118Z,84.70
2017-12-06T13:06:18.989Z,84.66
2017-12-06T13:07:25.848Z,84.58
2017-12-06T13:08:32.650Z,84.48
2017-12-06T13:09:39.485Z,84.40
2017-12-06T13:10:46.334Z,84.38
2017-12-06T13:11:53.272Z,84.38
2017-12-06T13:13:00.085Z,84.34
2017-12-06T13:14:06.909Z,84.35
2017-12-06T13:15:13.764Z,84.37
2017-12-06T13:16:20.595Z,84.31
2017-12-06T13:17:27.504Z,84.27
2017-12-06T13:18:34.337Z,84.29
2017-12-06T13:19:41.391Z,84.25
2017-12-06T13:20:48.260Z,84.23
2017-12-06T13:21:55.132Z,84.21
2017-12-06T13:23:01.969Z,84.13
2017-12-06T13:24:08.928Z,84.06
2017-12-06T13:25:15.793Z,84.04
2017-12-06T13:26:22.648Z,84.03
2017-12-06T13:27:29.537Z,83.97
2017-12-06T13:28:36.352Z,83.93
2017-12-06T13:29:43.175Z,83.92
2017-12-06T13:30:50.029Z,83.88
2017-12-06T13:31:56.896Z,83.83
2017-12-06T13:33:03.695Z,83.70
2017-12-06T13:34:10.505Z,83.66
2017-12-06T13:35:17.332Z,83.69
2017-12-06T13:36:24.136Z,83.66
2017-12-06T13:37:30.984Z,83.67
2017-12-06T13:38:37.841Z,83.77
2017-12-06T13:39:44.678Z,83.78
2017-12-06T13:40:51.491Z,83.79
2017-12-06T13:41:58.336Z,83.71
2017-12-06T13:43:05.152Z,83.67
2017-12-06T13:44:11.984Z,83.61
2017-12-06T13:45:18.916Z,83.59
2017-12-06T13:46:25.751Z,83.55
2017-12-06T13:47:32.605Z,83.49
2017-12-06T13:48:39.532Z,83.52
2017-12-06T13:49:46.522Z,83.50
2017-12-06T13:50:53.516Z,83.41
2017-12-06T13:52:00.452Z,83.40
2017-12-06T13:53:07.472Z,83.32
2017-12-06T13:54:14.460Z,83.26
2017-12-06T13:55:21.512Z,83.23
2017-12-06T13:56:28.581Z,83.22
2017-12-06T13:57:35.247Z,83.17
2017-12-06T13:58:42.225Z,83.13
2017-12-06T13:59:49.179Z,83.15
2017-12-06T14:00:56.174Z,83.00
2017-12-06T14:02:03.268Z,82.94
2017-12-06T14:03:10.181Z,82.90
2017-12-06T14:04:17.157Z,82.86
2017-12-06T14:05:24.013Z,82.88
2017-12-06T14:06:30.886Z,82.87
2017-12-06T14:07:37.789Z,82.78
2017-12-06T14:08:44.610Z,82.73
2017-12-06T14:09:51.388Z,82.73
2017-12-06T14:11:03.184Z,82.66
2017-12-06T14:12:04.993Z,82.58
2017-12-06T14:13:11.825Z,82.54
2017-12-06T14:14:18.689Z,82.51
2017-12-06T14:15:25.496Z,82.48
2017-12-06T14:16:32.317Z,82.48
2017-12-06T14:17:39.167Z,82.45
2017-12-06T14:18:46.007Z,82.42
2017-12-06T14:19:52.881Z,82.37